Time,TemperatureF,DewpointF,PressureIn,WindDirection,WindDirectionDegrees,WindSpeedMPH,WindSpeedGustMPH,Humidity,HourlyPrecipIn,Conditions,Clouds,dailyrainin,SoftwareType,DateUTC
2013-10-24 00:00:00,34.0,26.9,30.22,West,275,7.0,7.0,75,0.00,,,0.00,Wunderground v.1.15,2013-10-24 05:00:00,
2013-10-24 00:10:00,33.5,26.4,30.22,West,275,5.0,5.0,75,0.00,,,0.00,Wunderground v.1.15,2013-10-24 05:10:00,
2013-10-24 00:20:00,33.3,26.5,30.22,West,275,6.0,6.0,76,0.00,,,0.00,Wunderground v.1.15,2013-10-24 05:20:00,
2013-10-24 00:25:00,33.3,26.5,30.23,West,275,6.0,11.0,76,0.00,,,0.00,Wunderground v.1.15,2013-10-24 05:25:00,
2013-10-24 00:35:00,33.6,26.8,30.23,WNW,282,8.0,16.0,76,0.00,,,0.00,Wunderground v.1.15,2013-10-24 05:35:00,
2013-10-24 00:45:00,33.8,27.0,30.23,West,279,7.0,18.0,76,0.00,,,0.00,Wunderground v.1.15,2013-10-24 05:45:00,
2013-10-24 00:55:00,33.9,27.1,30.23,West,277,7.0,20.0,76,0.00,,,0.00,Wunderground v.1.15,2013-10-24 05:55:00,
2013-10-24 01:00:00,33.6,26.8,30.23,West,276,5.0,8.0,76,0.00,,,0.00,Wunderground v.1.15,2013-10-24 06:00:00,
2013-10-24 01:10:00,33.3,26.5,30.23,West,277,7.0,7.0,76,0.00,,,0.00,Wunderground v.1.15,2013-10-24 06:10:00,
2013-10-24 01:20:00,33.1,26.7,30.24,West,273,13.0,13.0,77,0.00,,,0.00,Wunderground v.1.15,2013-10-24 06:20:00,
2013-10-24 01:25:00,32.9,26.8,30.24,WNW,288,13.0,17.0,78,0.00,,,0.00,Wunderground v.1.15,2013-10-24 06:25:00,
2013-10-24 01:35:00,32.7,26.6,30.24,WNW,284,9.0,12.0,78,0.00,,,0.00,Wunderground v.1.15,2013-10-24 06:35:00,
2013-10-24 01:45:00,32.5,26.1,30.25,West,277,11.0,19.0,77,0.00,,,0.00,Wunderground v.1.15,2013-10-24 06:45:00,
2013-10-24 01:55:00,32.5,24.8,30.25,WNW,283,11.0,32.0,73,0.00,,,0.00,Wunderground v.1.15,2013-10-24 06:55:00,
2013-10-24 02:00:00,32.5,24.1,30.25,West,278,12.0,15.0,71,0.00,,,0.00,Wunderground v.1.15,2013-10-24 07:00:00,
2013-10-24 02:10:00,32.1,23.1,30.25,WNW,283,12.0,12.0,69,0.00,,,0.00,Wunderground v.1.15,2013-10-24 07:10:00,
2013-10-24 02:20:00,31.7,22.3,30.26,West,269,11.0,11.0,68,0.00,,,0.00,Wunderground v.1.15,2013-10-24 07:20:00,
2013-10-24 02:30:00,31.2,21.9,30.26,WNW,286,8.0,8.0,68,0.00,,,0.00,Wunderground v.1.15,2013-10-24 07:30:00,
2013-10-24 02:40:00,31.0,22.0,30.26,West,274,10.0,19.0,69,0.00,,,0.00,Wunderground v.1.15,2013-10-24 07:40:00,
2013-10-24 02:45:00,31.0,22.0,30.27,WNW,287,10.0,21.0,69,0.00,,,0.00,Wunderground v.1.15,2013-10-24 07:45:00,
2013-10-24 02:55:00,30.8,21.5,30.27,West,277,8.0,22.0,68,0.00,,,0.00,Wunderground v.1.15,2013-10-24 07:55:00,
2013-10-24 03:00:00,30.6,21.6,30.27,West,269,7.0,7.0,69,0.00,,,0.00,Wunderground v.1.15,2013-10-24 08:00:00,
2013-10-24 03:10:00,30.3,21.7,30.28,West,271,5.0,13.0,70,0.00,,,0.00,Wunderground v.1.15,2013-10-24 08:10:00,
2013-10-24 03:15:00,30.2,21.6,30.27,West,271,6.0,17.0,70,0.00,,,0.00,Wunderground v.1.15,2013-10-24 08:15:00,
2013-10-24 03:25:00,29.8,21.5,30.28,West,270,6.0,14.0,71,0.00,,,0.00,Wunderground v.1.15,2013-10-24 08:25:00,
2013-10-24 03:35:00,29.6,21.3,30.28,West,281,5.0,12.0,71,0.00,,,0.00,Wunderground v.1.15,2013-10-24 08:35:00,
2013-10-24 03:40:00,29.5,21.3,30.28,WNW,287,5.0,5.0,71,0.00,,,0.00,Wunderground v.1.15,2013-10-24 08:40:00,
2013-10-24 03:50:00,29.3,21.4,30.28,West,265,3.0,3.0,72,0.00,,,0.00,Wunderground v.1.15,2013-10-24 08:50:00,
2013-10-24 03:55:00,29.2,21.3,30.29,West,265,3.0,9.0,72,0.00,,,0.00,Wunderground v.1.15,2013-10-24 08:55:00,
2013-10-24 04:00:00,29.0,21.4,30.28,West,265,2.0,2.0,73,0.00,,,0.00,Wunderground v.1.15,2013-10-24 09:00:00,
2013-10-24 04:10:00,28.7,21.5,30.29,West,275,5.0,5.0,74,0.00,,,0.00,Wunderground v.1.15,2013-10-24 09:10:00,
2013-10-24 04:20:00,28.3,21.4,30.29,West,277,5.0,5.0,75,0.00,,,0.00,Wunderground v.1.15,2013-10-24 09:20:00,
2013-10-24 04:25:00,28.0,21.1,30.29,West,277,5.0,11.0,75,0.00,,,0.00,Wunderground v.1.15,2013-10-24 09:25:00,
2013-10-24 04:35:00,27.6,21.0,30.29,West,277,4.0,7.0,76,0.00,,,0.00,Wunderground v.1.15,2013-10-24 09:35:00,
2013-10-24 04:45:00,27.0,21.1,30.30,West,277,4.0,7.0,78,0.00,,,0.00,Wunderground v.1.15,2013-10-24 09:45:00,
2013-10-24 04:50:00,26.9,21.0,30.30,West,277,4.0,9.0,78,0.00,,,0.00,Wunderground v.1.15,2013-10-24 09:50:00,
2013-10-24 05:05:00,26.5,20.9,30.31,West,277,3.0,9.0,79,0.00,,,0.00,Wunderground v.1.15,2013-10-24 10:05:00,
2013-10-24 05:10:00,26.1,20.5,30.31,West,277,2.0,2.0,79,0.00,,,0.00,Wunderground v.1.15,2013-10-24 10:10:00,
2013-10-24 05:20:00,25.5,20.8,30.31,West,277,1.0,3.0,82,0.00,,,0.00,Wunderground v.1.15,2013-10-24 10:20:00,
2013-10-24 05:30:00,25.4,20.7,30.31,West,277,0.0,2.0,82,0.00,,,0.00,Wunderground v.1.15,2013-10-24 10:30:00,
2013-10-24 05:40:00,24.8,20.4,30.32,West,277,1.0,4.0,83,0.00,,,0.00,Wunderground v.1.15,2013-10-24 10:40:00,
2013-10-24 05:50:00,24.9,20.8,30.32,West,277,1.0,1.0,84,0.00,,,0.00,Wunderground v.1.15,2013-10-24 10:50:00,
2013-10-24 06:00:00,24.7,20.6,30.33,West,277,0.0,0.0,84,0.00,,,0.00,Wunderground v.1.15,2013-10-24 11:00:00,
2013-10-24 06:10:00,24.4,20.5,30.33,West,277,0.0,2.0,85,0.00,,,0.00,Wunderground v.1.15,2013-10-24 11:10:00,
2013-10-24 06:20:00,24.7,21.1,30.33,West,277,0.0,0.0,86,0.00,,,0.00,Wunderground v.1.15,2013-10-24 11:20:00,
2013-10-24 06:30:00,25.1,22.0,30.33,West,277,0.0,1.0,88,0.00,,,0.00,Wunderground v.1.15,2013-10-24 11:30:00,
2013-10-24 06:40:00,25.3,22.2,30.33,West,277,0.0,3.0,88,0.00,,,0.00,Wunderground v.1.15,2013-10-24 11:40:00,
2013-10-24 06:50:00,25.1,22.0,30.33,West,277,0.0,0.0,88,0.00,,,0.00,Wunderground v.1.15,2013-10-24 11:50:00,
2013-10-24 07:00:00,25.3,22.8,30.33,West,277,0.0,0.0,90,0.00,,,0.00,Wunderground v.1.15,2013-10-24 12:00:00,
2013-10-24 07:10:00,26.1,23.8,30.33,West,277,0.0,1.0,91,0.00,,,0.00,Wunderground v.1.15,2013-10-24 12:10:00,
2013-10-24 07:20:00,27.7,25.7,30.34,West,277,0.0,2.0,92,0.00,,,0.00,Wunderground v.1.15,2013-10-24 12:20:00,
2013-10-24 07:30:00,28.8,26.8,30.34,West,277,1.0,4.0,92,0.00,,,0.00,Wunderground v.1.15,2013-10-24 12:30:00,
2013-10-24 07:40:00,29.4,27.4,30.34,West,277,1.0,6.0,92,0.00,,,0.00,Wunderground v.1.15,2013-10-24 12:40:00,
2013-10-24 07:50:00,30.0,27.7,30.34,West,277,1.0,6.0,91,0.00,,,0.00,Wunderground v.1.15,2013-10-24 12:50:00,
2013-10-24 08:00:00,30.6,28.3,30.35,West,277,3.0,3.0,91,0.00,,,0.00,Wunderground v.1.15,2013-10-24 13:00:00,
2013-10-24 08:10:00,31.0,28.7,30.34,West,277,2.0,2.0,91,0.00,,,0.00,Wunderground v.1.15,2013-10-24 13:10:00,
2013-10-24 08:20:00,31.3,28.7,30.35,West,277,1.0,7.0,90,0.00,,,0.00,Wunderground v.1.15,2013-10-24 13:20:00,
2013-10-24 08:30:00,31.5,29.2,30.35,West,277,2.0,4.0,91,0.00,,,0.00,Wunderground v.1.15,2013-10-24 13:30:00,
2013-10-24 08:40:00,32.3,30.0,30.36,West,279,5.0,9.0,91,0.00,,,0.00,Wunderground v.1.15,2013-10-24 13:40:00,
2013-10-24 08:50:00,33.1,30.5,30.36,West,277,6.0,15.0,90,0.00,,,0.00,Wunderground v.1.15,2013-10-24 13:50:00,
2013-10-24 09:00:00,33.6,31.0,30.36,West,276,7.0,10.0,90,0.00,,,0.00,Wunderground v.1.15,2013-10-24 14:00:00,
2013-10-24 09:10:00,34.1,31.2,30.36,West,275,7.0,13.0,89,0.00,,,0.00,Wunderground v.1.15,2013-10-24 14:10:00,
2013-10-24 09:20:00,34.9,31.7,30.36,West,277,6.0,6.0,88,0.00,,,0.00,Wunderground v.1.15,2013-10-24 14:20:00,
2013-10-24 09:30:00,35.7,32.5,30.37,West,277,4.0,4.0,88,0.00,,,0.00,Wunderground v.1.15,2013-10-24 14:30:00,
2013-10-24 09:40:00,35.8,32.0,30.37,West,265,6.0,10.0,86,0.00,,,0.00,Wunderground v.1.15,2013-10-24 14:40:00,
2013-10-24 09:50:00,35.7,31.9,30.38,West,277,10.0,16.0,86,0.00,,,0.00,Wunderground v.1.15,2013-10-24 14:50:00,
2013-10-24 10:00:00,35.9,31.8,30.38,West,277,10.0,10.0,85,0.00,,,0.00,Wunderground v.1.15,2013-10-24 15:00:00,
2013-10-24 10:10:00,37.3,32.9,30.38,West,259,4.0,4.0,84,0.00,,,0.00,Wunderground v.1.15,2013-10-24 15:10:00,
2013-10-24 10:20:00,37.5,31.9,30.39,West,274,6.0,18.0,80,0.00,,,0.00,Wunderground v.1.15,2013-10-24 15:20:00,
2013-10-24 10:30:00,37.3,31.7,30.39,West,273,9.0,9.0,80,0.00,,,0.00,Wunderground v.1.15,2013-10-24 15:30:00,
2013-10-24 10:40:00,38.7,31.5,30.39,West,262,6.0,6.0,75,0.00,,,0.00,Wunderground v.1.15,2013-10-24 15:40:00,
2013-10-24 10:50:00,39.0,30.4,30.39,WNW,282,9.0,9.0,71,0.00,,,0.00,Wunderground v.1.15,2013-10-24 15:50:00,
2013-10-24 11:00:00,40.1,31.1,30.39,WNW,290,5.0,5.0,70,0.00,,,0.00,Wunderground v.1.15,2013-10-24 16:00:00,
2013-10-24 11:10:00,40.7,31.0,30.39,WNW,284,5.0,5.0,68,0.00,,,0.00,Wunderground v.1.15,2013-10-24 16:10:00,
2013-10-24 11:20:00,41.1,29.5,30.39,WNW,292,5.0,5.0,63,0.00,,,0.00,Wunderground v.1.15,2013-10-24 16:20:00,
2013-10-24 11:30:00,41.9,29.4,30.39,West,267,2.0,8.0,61,0.00,,,0.00,Wunderground v.1.15,2013-10-24 16:30:00,
2013-10-24 11:35:00,42.2,27.6,30.39,WNW,284,4.0,9.0,56,0.00,,,0.00,Wunderground v.1.15,2013-10-24 16:35:00,
2013-10-24 11:45:00,42.5,28.3,30.39,West,267,4.0,8.0,57,0.00,,,0.00,Wunderground v.1.15,2013-10-24 16:45:00,
2013-10-24 11:55:00,43.4,29.6,30.39,West,265,5.0,17.0,58,0.00,,,0.00,Wunderground v.1.15,2013-10-24 16:55:00,
2013-10-24 12:00:00,43.5,30.1,30.39,West,279,5.0,6.0,59,0.00,,,0.00,Wunderground v.1.15,2013-10-24 17:00:00,
2013-10-24 12:10:00,42.5,29.2,30.39,West,267,7.0,7.0,59,0.00,,,0.00,Wunderground v.1.15,2013-10-24 17:10:00,
2013-10-24 12:20:00,42.9,29.5,30.39,West,260,7.0,19.0,59,0.00,,,0.00,Wunderground v.1.15,2013-10-24 17:20:00,
2013-10-24 12:30:00,42.8,29.9,30.39,West,273,8.0,18.0,60,0.00,,,0.00,Wunderground v.1.15,2013-10-24 17:30:00,
2013-10-24 12:35:00,43.0,29.6,30.39,West,269,7.0,18.0,59,0.00,,,0.00,Wunderground v.1.15,2013-10-24 17:35:00,
2013-10-24 12:45:00,43.2,29.8,30.39,West,275,5.0,15.0,59,0.00,,,0.00,Wunderground v.1.15,2013-10-24 17:45:00,
2013-10-24 12:55:00,43.6,29.8,30.38,West,275,8.0,16.0,58,0.00,,,0.00,Wunderground v.1.15,2013-10-24 17:55:00,
2013-10-24 13:05:00,43.8,30.0,30.38,West,281,9.0,24.0,58,0.00,,,0.00,Wunderground v.1.15,2013-10-24 18:05:00,
2013-10-24 13:15:00,43.4,29.2,30.38,West,272,9.0,26.0,57,0.00,,,0.00,Wunderground v.1.15,2013-10-24 18:15:00,
2013-10-24 13:20:00,42.9,29.1,30.38,WNW,286,9.0,9.0,58,0.00,,,0.00,Wunderground v.1.15,2013-10-24 18:20:00,
2013-10-24 13:30:00,43.5,30.9,30.38,WNW,283,9.0,17.0,61,0.00,,,0.00,Wunderground v.1.15,2013-10-24 18:30:00,
2013-10-24 13:40:00,44.6,30.3,30.38,West,269,8.0,8.0,57,0.00,,,0.00,Wunderground v.1.15,2013-10-24 18:40:00,
2013-10-24 13:50:00,43.6,30.6,30.38,West,279,9.0,19.0,60,0.00,,,0.00,Wunderground v.1.15,2013-10-24 18:50:00,
2013-10-24 14:00:00,43.3,31.5,30.38,WNW,296,8.0,8.0,63,0.00,,,0.00,Wunderground v.1.15,2013-10-24 19:00:00,
2013-10-24 14:10:00,43.0,31.6,30.38,West,275,8.0,8.0,64,0.00,,,0.00,Wunderground v.1.15,2013-10-24 19:10:00,
2013-10-24 14:15:00,43.6,31.8,30.37,West,272,9.0,9.0,63,0.00,,,0.00,Wunderground v.1.15,2013-10-24 19:15:00,
2013-10-24 14:25:00,43.4,31.2,30.37,West,273,7.0,13.0,62,0.00,,,0.00,Wunderground v.1.15,2013-10-24 19:25:00,
2013-10-24 14:35:00,43.3,31.9,30.38,West,275,11.0,26.0,64,0.00,,,0.00,Wunderground v.1.15,2013-10-24 19:35:00,
2013-10-24 14:40:00,43.4,32.0,30.38,NW,312,5.0,5.0,64,0.00,,,0.00,Wunderground v.1.15,2013-10-24 19:40:00,
2013-10-24 14:50:00,44.1,32.7,30.37,WNW,295,1.0,13.0,64,0.00,,,0.00,Wunderground v.1.15,2013-10-24 19:50:00,
2013-10-24 15:00:00,46.2,33.5,30.37,NNW,348,1.0,1.0,61,0.00,,,0.00,Wunderground v.1.15,2013-10-24 20:00:00,
2013-10-24 15:10:00,47.2,33.2,30.37,WNW,299,2.0,8.0,58,0.00,,,0.00,Wunderground v.1.15,2013-10-24 20:10:00,
2013-10-24 15:15:00,46.6,32.2,30.37,NNW,347,3.0,9.0,57,0.00,,,0.00,Wunderground v.1.15,2013-10-24 20:15:00,
2013-10-24 15:25:00,46.0,30.3,30.37,West,271,4.0,7.0,54,0.00,,,0.00,Wunderground v.1.15,2013-10-24 20:25:00,
2013-10-24 15:35:00,45.8,31.4,30.37,WNW,283,9.0,26.0,57,0.00,,,0.00,Wunderground v.1.15,2013-10-24 20:35:00,
2013-10-24 15:45:00,46.5,31.6,30.37,West,270,9.0,18.0,56,0.00,,,0.00,Wunderground v.1.15,2013-10-24 20:45:00,
2013-10-24 15:55:00,47.6,31.3,30.37,West,278,8.0,12.0,53,0.00,,,0.00,Wunderground v.1.15,2013-10-24 20:55:00,
2013-10-24 16:00:00,47.5,30.7,30.37,West,270,8.0,8.0,52,0.00,,,0.00,Wunderground v.1.15,2013-10-24 21:00:00,
2013-10-24 16:10:00,47.3,30.5,30.36,West,265,8.0,8.0,52,0.00,,,0.00,Wunderground v.1.15,2013-10-24 21:10:00,
2013-10-24 16:15:00,47.3,30.5,30.36,West,259,6.0,28.0,52,0.00,,,0.00,Wunderground v.1.15,2013-10-24 21:15:00,
2013-10-24 16:25:00,47.3,31.0,30.36,West,276,7.0,23.0,53,0.00,,,0.00,Wunderground v.1.15,2013-10-24 21:25:00,
2013-10-24 16:35:00,47.6,31.3,30.36,NNW,333,4.0,18.0,53,0.00,,,0.00,Wunderground v.1.15,2013-10-24 21:35:00,
2013-10-24 16:45:00,47.2,30.0,30.36,West,277,4.0,4.0,51,0.00,,,0.00,Wunderground v.1.15,2013-10-24 21:45:00,
2013-10-24 16:55:00,46.5,29.3,30.36,West,280,6.0,6.0,51,0.00,,,0.00,Wunderground v.1.15,2013-10-24 21:55:00,
2013-10-24 17:00:00,46.2,29.5,30.36,West,273,8.0,8.0,52,0.00,,,0.00,Wunderground v.1.15,2013-10-24 22:00:00,
2013-10-24 17:10:00,45.9,30.2,30.36,WNW,294,2.0,2.0,54,0.00,,,0.00,Wunderground v.1.15,2013-10-24 22:10:00,
2013-10-24 17:15:00,45.8,30.1,30.37,West,275,2.0,14.0,54,0.00,,,0.00,Wunderground v.1.15,2013-10-24 22:15:00,
2013-10-24 17:25:00,45.2,30.4,30.37,West,273,1.0,15.0,56,0.00,,,0.00,Wunderground v.1.15,2013-10-24 22:25:00,
2013-10-24 17:35:00,44.4,30.5,30.36,West,270,0.0,4.0,58,0.00,,,0.00,Wunderground v.1.15,2013-10-24 22:35:00,
2013-10-24 17:45:00,44.0,30.6,30.37,West,271,0.0,6.0,59,0.00,,,0.00,Wunderground v.1.15,2013-10-24 22:45:00,
2013-10-24 17:55:00,43.4,30.4,30.37,West,270,0.0,2.0,60,0.00,,,0.00,Wunderground v.1.15,2013-10-24 22:55:00,
2013-10-24 18:00:00,43.2,30.2,30.37,West,271,0.0,0.0,60,0.00,,,0.00,Wunderground v.1.15,2013-10-24 23:00:00,
2013-10-24 18:10:00,42.7,29.8,30.37,West,270,0.0,4.0,60,0.00,,,0.00,Wunderground v.1.15,2013-10-24 23:10:00,
2013-10-24 18:20:00,42.1,29.6,30.38,West,270,0.0,1.0,61,0.00,,,0.00,Wunderground v.1.15,2013-10-24 23:20:00,
2013-10-24 18:30:00,41.4,29.7,30.38,West,270,0.0,3.0,63,0.00,,,0.00,Wunderground v.1.15,2013-10-24 23:30:00,
2013-10-24 18:40:00,40.6,29.4,30.38,West,270,0.0,0.0,64,0.00,,,0.00,Wunderground v.1.15,2013-10-24 23:40:00,
2013-10-24 18:50:00,39.8,29.4,30.38,West,270,0.0,0.0,66,0.00,,,0.00,Wunderground v.1.15,2013-10-24 23:50:00,
2013-10-24 19:00:00,39.1,29.4,30.38,West,270,0.0,0.0,68,0.00,,,0.00,Wunderground v.1.15,2013-10-25 00:00:00,
2013-10-24 19:10:00,38.4,29.1,30.39,West,270,0.0,0.0,69,0.00,,,0.00,Wunderground v.1.15,2013-10-25 00:10:00,
2013-10-24 19:20:00,37.7,29.1,30.39,West,270,0.0,0.0,71,0.00,,,0.00,Wunderground v.1.15,2013-10-25 00:20:00,
2013-10-24 19:30:00,37.0,28.8,30.39,West,270,0.0,0.0,72,0.00,,,0.00,Wunderground v.1.15,2013-10-25 00:30:00,
2013-10-24 19:40:00,36.3,28.5,30.40,West,270,0.0,0.0,73,0.00,,,0.00,Wunderground v.1.15,2013-10-25 00:40:00,
2013-10-24 19:50:00,35.3,28.2,30.40,West,270,0.0,1.0,75,0.00,,,0.00,Wunderground v.1.15,2013-10-25 00:50:00,
2013-10-24 20:00:00,35.7,29.5,30.41,West,272,4.0,4.0,78,0.00,,,0.00,Wunderground v.1.15,2013-10-25 01:00:00,
2013-10-24 20:10:00,36.8,30.3,30.41,West,270,2.0,11.0,77,0.00,,,0.00,Wunderground v.1.15,2013-10-25 01:10:00,
2013-10-24 20:20:00,36.7,30.2,30.41,West,269,1.0,1.0,77,0.00,,,0.00,Wunderground v.1.15,2013-10-25 01:20:00,
2013-10-24 20:30:00,36.2,29.7,30.41,West,269,1.0,1.0,77,0.00,,,0.00,Wunderground v.1.15,2013-10-25 01:30:00,
2013-10-24 20:35:00,36.1,29.9,30.42,West,269,1.0,7.0,78,0.00,,,0.00,Wunderground v.1.15,2013-10-25 01:35:00,
2013-10-24 20:45:00,35.6,29.4,30.42,West,269,1.0,2.0,78,0.00,,,0.00,Wunderground v.1.15,2013-10-25 01:45:00,
2013-10-24 20:55:00,35.0,29.1,30.42,West,269,1.0,2.0,79,0.00,,,0.00,Wunderground v.1.15,2013-10-25 01:55:00,
2013-10-24 21:00:00,35.0,29.5,30.42,West,269,3.0,4.0,80,0.00,,,0.00,Wunderground v.1.15,2013-10-25 02:00:00,
2013-10-24 21:10:00,34.7,29.2,30.42,West,269,3.0,3.0,80,0.00,,,0.00,Wunderground v.1.15,2013-10-25 02:10:00,
2013-10-24 21:20:00,33.8,28.6,30.42,West,269,1.0,4.0,81,0.00,,,0.00,Wunderground v.1.15,2013-10-25 02:20:00,
2013-10-24 21:30:00,33.4,28.5,30.42,West,269,1.0,1.0,82,0.00,,,0.00,Wunderground v.1.15,2013-10-25 02:30:00,
2013-10-24 21:35:00,33.2,28.3,30.42,West,269,0.0,2.0,82,0.00,,,0.00,Wunderground v.1.15,2013-10-25 02:35:00,
2013-10-24 21:45:00,32.5,27.6,30.42,West,269,0.0,1.0,82,0.00,,,0.00,Wunderground v.1.15,2013-10-25 02:45:00,
2013-10-24 21:55:00,31.6,27.0,30.43,West,269,0.0,1.0,83,0.00,,,0.00,Wunderground v.1.15,2013-10-25 02:55:00,
2013-10-24 22:00:00,31.2,26.9,30.43,West,269,0.0,0.0,84,0.00,,,0.00,Wunderground v.1.15,2013-10-25 03:00:00,
2013-10-24 22:10:00,30.6,26.9,30.43,West,269,0.0,0.0,86,0.00,,,0.00,Wunderground v.1.15,2013-10-25 03:10:00,
2013-10-24 22:20:00,30.4,27.0,30.43,West,269,0.0,0.0,87,0.00,,,0.00,Wunderground v.1.15,2013-10-25 03:20:00,
2013-10-24 22:30:00,29.7,26.0,30.43,West,269,0.0,0.0,86,0.00,,,0.00,Wunderground v.1.15,2013-10-25 03:30:00,
2013-10-24 22:40:00,29.2,26.1,30.43,West,269,0.0,1.0,88,0.00,,,0.00,Wunderground v.1.15,2013-10-25 03:40:00,
2013-10-24 22:50:00,28.9,25.8,30.43,West,269,0.0,0.0,88,0.00,,,0.00,Wunderground v.1.15,2013-10-25 03:50:00,
2013-10-24 23:00:00,28.8,26.0,30.44,West,269,0.0,0.0,89,0.00,,,0.00,Wunderground v.1.15,2013-10-25 04:00:00,
2013-10-24 23:05:00,29.0,26.4,30.44,West,269,0.0,0.0,90,0.00,,,0.00,Wunderground v.1.15,2013-10-25 04:05:00,
2013-10-24 23:10:00,29.2,26.6,30.44,West,269,0.0,0.0,90,0.00,,,0.00,Wunderground v.1.15,2013-10-25 04:10:00,
2013-10-24 23:15:00,29.2,26.6,30.44,West,269,0.0,0.0,90,0.00,,,0.00,Wunderground v.1.15,2013-10-25 04:15:00,
2013-10-24 23:20:00,28.9,26.3,30.44,West,269,0.0,0.0,90,0.00,,,0.00,Wunderground v.1.15,2013-10-25 04:20:00,
2013-10-24 23:25:00,28.8,26.2,30.44,West,269,0.0,0.0,90,0.00,,,0.00,Wunderground v.1.15,2013-10-25 04:25:00,
2013-10-24 23:35:00,28.4,25.8,30.44,West,269,0.0,0.0,90,0.00,,,0.00,Wunderground v.1.15,2013-10-25 04:35:00,
2013-10-24 23:45:00,28.3,26.0,30.45,West,269,0.0,0.0,91,0.00,,,0.00,Wunderground v.1.15,2013-10-25 04:45:00,
2013-10-24 23:55:00,28.2,25.9,30.44,West,269,0.0,1.0,91,0.00,,,0.00,Wunderground v.1.15,2013-10-25 04:55:00,